sensor_id;sensor_type;location;lat;lon;timestamp;P1;P2;P0
65803;PMS5003;65658;63.740;34.316;2023-02-26T00:04:23;20;20;
65803;PMS5003;65658;63.740;34.316;2023-02-26T00:08:55;17;20;
65803;PMS5003;65658;63.740;34.316;2023-02-26T00:13:41;9;9;
65803;PMS5003;65658;63.740;34.316;2023-02-26T00:17:36;17;19;
65803;PMS5003;65658;63.740;34.316;2023-02-26T00:21:31;20;21;
65803;PMS5003;65658;63.740;34.316;2023-02-26T00:25:43;23;24;
65803;PMS5003;65658;63.740;34.316;2023-02-26T00:30:51;17;21;
65803;PMS5003;65658;63.740;34.316;2023-02-26T00:35:14;16;20;
65803;PMS5003;65658;63.740;34.316;2023-02-26T00:44:47;24;24;
65803;PMS5003;65658;63.740;34.316;2023-02-26T00:53:36;17;19;
65803;PMS5003;65658;63.740;34.316;2023-02-26T00:57:59;16;16;
65803;PMS5003;65658;63.740;34.316;2023-02-26T01:02:44;9;9;
65803;PMS5003;65658;63.740;34.316;2023-02-26T01:07:06;19;23;
65803;PMS5003;65658;63.740;34.316;2023-02-26T01:12:20;22;24;
65803;PMS5003;65658;63.740;34.316;2023-02-26T01:21:32;20;26;
65803;PMS5003;65658;63.740;34.316;2023-02-26T01:25:50;23;25;
65803;PMS5003;65658;63.740;34.316;2023-02-26T01:30:36;16;17;
65803;PMS5003;65658;63.740;34.316;2023-02-26T01:39:35;19;19;
65803;PMS5003;65658;63.740;34.316;2023-02-26T01:44:55;20;22;
65803;PMS5003;65658;63.740;34.316;2023-02-26T01:49:20;26;29;
65803;PMS5003;65658;63.740;34.316;2023-02-26T01:53:45;19;20;
65803;PMS5003;65658;63.740;34.316;2023-02-26T01:58:53;16;19;
65803;PMS5003;65658;63.740;34.316;2023-02-26T02:04:12;17;22;
65803;PMS5003;65658;63.740;34.316;2023-02-26T02:09:30;12;12;
65803;PMS5003;65658;63.740;34.316;2023-02-26T02:39:31;23;31;
65803;PMS5003;65658;63.740;34.316;2023-02-26T02:43:44;23;24;
65803;PMS5003;65658;63.740;34.316;2023-02-26T02:48:09;24;29;
65803;PMS5003;65658;63.740;34.316;2023-02-26T02:52:00;22;27;
65803;PMS5003;65658;63.740;34.316;2023-02-26T03:00:44;25;26;
65803;PMS5003;65658;63.740;34.316;2023-02-26T03:04:55;26;27;
65803;PMS5003;65658;63.740;34.316;2023-02-26T03:09:26;24;26;
65803;PMS5003;65658;63.740;34.316;2023-02-26T03:13:26;27;31;
65803;PMS5003;65658;63.740;34.316;2023-02-26T03:29:34;25;29;
65803;PMS5003;65658;63.740;34.316;2023-02-26T03:38:09;25;29;
65803;PMS5003;65658;63.740;34.316;2023-02-26T03:46:02;25;28;
65803;PMS5003;65658;63.740;34.316;2023-02-26T03:49:55;31;32;
65803;PMS5003;65658;63.740;34.316;2023-02-26T03:57:38;24;30;
65803;PMS5003;65658;63.740;34.316;2023-02-26T04:01:29;27;31;
65803;PMS5003;65658;63.740;34.316;2023-02-26T04:05:18;27;28;
65803;PMS5003;65658;63.740;34.316;2023-02-26T04:09:08;26;27;
65803;PMS5003;65658;63.740;34.316;2023-02-26T04:12:57;23;24;
65803;PMS5003;65658;63.740;34.316;2023-02-26T04:16:46;30;36;
65803;PMS5003;65658;63.740;34.316;2023-02-26T04:20:34;34;37;
65803;PMS5003;65658;63.740;34.316;2023-02-26T04:24:24;27;31;
65803;PMS5003;65658;63.740;34.316;2023-02-26T04:28:11;30;34;
65803;PMS5003;65658;63.740;34.316;2023-02-26T04:32:00;20;21;
65803;PMS5003;65658;63.740;34.316;2023-02-26T04:35:48;27;28;
65803;PMS5003;65658;63.740;34.316;2023-02-26T04:39:37;30;34;
65803;PMS5003;65658;63.740;34.316;2023-02-26T04:43:26;24;25;
65803;PMS5003;65658;63.740;34.316;2023-02-26T04:47:16;30;31;
65803;PMS5003;65658;63.740;34.316;2023-02-26T04:51:03;28;30;
65803;PMS5003;65658;63.740;34.316;2023-02-26T04:54:54;31;35;
65803;PMS5003;65658;63.740;34.316;2023-02-26T04:58:42;30;32;
65803;PMS5003;65658;63.740;34.316;2023-02-26T05:02:30;28;35;
65803;PMS5003;65658;63.740;34.316;2023-02-26T05:06:18;32;35;
65803;PMS5003;65658;63.740;34.316;2023-02-26T05:10:07;31;34;
65803;PMS5003;65658;63.740;34.316;2023-02-26T05:13:55;24;28;
65803;PMS5003;65658;63.740;34.316;2023-02-26T05:17:44;28;30;
65803;PMS5003;65658;63.740;34.316;2023-02-26T05:21:32;31;34;
65803;PMS5003;65658;63.740;34.316;2023-02-26T05:25:20;29;31;
65803;PMS5003;65658;63.740;34.316;2023-02-26T05:29:08;25;29;
65803;PMS5003;65658;63.740;34.316;2023-02-26T05:32:58;24;27;
65803;PMS5003;65658;63.740;34.316;2023-02-26T05:36:47;32;41;
65803;PMS5003;65658;63.740;34.316;2023-02-26T05:40:35;29;32;
65803;PMS5003;65658;63.740;34.316;2023-02-26T05:44:22;26;26;
65803;PMS5003;65658;63.740;34.316;2023-02-26T05:48:12;26;28;
65803;PMS5003;65658;63.740;34.316;2023-02-26T05:52:00;24;29;
65803;PMS5003;65658;63.740;34.316;2023-02-26T05:55:48;25;29;
65803;PMS5003;65658;63.740;34.316;2023-02-26T05:59:59;29;32;
65803;PMS5003;65658;63.740;34.316;2023-02-26T06:03:59;22;25;
65803;PMS5003;65658;63.740;34.316;2023-02-26T06:08:10;30;33;
65803;PMS5003;65658;63.740;34.316;2023-02-26T06:11:58;29;37;
65803;PMS5003;65658;63.740;34.316;2023-02-26T06:16:20;29;30;
65803;PMS5003;65658;63.740;34.316;2023-02-26T06:24:01;36;41;
65803;PMS5003;65658;63.740;34.316;2023-02-26T06:27:48;26;30;
65803;PMS5003;65658;63.740;34.316;2023-02-26T06:31:35;24;29;
65803;PMS5003;65658;63.740;34.316;2023-02-26T06:35:23;34;37;
65803;PMS5003;65658;63.740;34.316;2023-02-26T06:39:35;29;32;
65803;PMS5003;65658;63.740;34.316;2023-02-26T06:43:58;30;33;
65803;PMS5003;65658;63.740;34.316;2023-02-26T06:47:46;27;33;
65803;PMS5003;65658;63.740;34.316;2023-02-26T06:52:31;26;31;
65803;PMS5003;65658;63.740;34.316;2023-02-26T06:56:54;23;24;
65803;PMS5003;65658;63.740;34.316;2023-02-26T07:00:54;23;26;
65803;PMS5003;65658;63.740;34.316;2023-02-26T07:05:05;28;30;
65803;PMS5003;65658;63.740;34.316;2023-02-26T07:08:52;30;32;
65803;PMS5003;65658;63.740;34.316;2023-02-26T07:12:42;20;21;
65803;PMS5003;65658;63.740;34.316;2023-02-26T07:16:29;26;27;
65803;PMS5003;65658;63.740;34.316;2023-02-26T07:21:03;20;26;
65803;PMS5003;65658;63.740;34.316;2023-02-26T07:25:03;23;28;
65803;PMS5003;65658;63.740;34.316;2023-02-26T07:29:13;19;20;
65803;PMS5003;65658;63.740;34.316;2023-02-26T07:33:47;19;25;
65803;PMS5003;65658;63.740;34.316;2023-02-26T07:37:37;22;23;
65803;PMS5003;65658;63.740;34.316;2023-02-26T07:41:36;18;19;
65803;PMS5003;65658;63.740;34.316;2023-02-26T07:46:11;19;25;
65803;PMS5003;65658;63.740;34.316;2023-02-26T07:51:19;17;22;
65803;PMS5003;65658;63.740;34.316;2023-02-26T07:56:03;18;19;
65803;PMS5003;65658;63.740;34.316;2023-02-26T08:00:23;17;17;
65803;PMS5003;65658;63.740;34.316;2023-02-26T08:05:07;16;18;
65803;PMS5003;65658;63.740;34.316;2023-02-26T08:09:41;19;21;
65803;PMS5003;65658;63.740;34.316;2023-02-26T08:14:26;14;18;
65803;PMS5003;65658;63.740;34.316;2023-02-26T08:18:47;5;5;
65803;PMS5003;65658;63.740;34.316;2023-02-26T08:23:08;11;13;
65803;PMS5003;65658;63.740;34.316;2023-02-26T08:27:31;13;13;
65803;PMS5003;65658;63.740;34.316;2023-02-26T08:32:02;16;16;
65803;PMS5003;65658;63.740;34.316;2023-02-26T08:37:18;12;18;
65803;PMS5003;65658;63.740;34.316;2023-02-26T08:41:27;15;16;
65803;PMS5003;65658;63.740;34.316;2023-02-26T08:45:27;12;15;
65803;PMS5003;65658;63.740;34.316;2023-02-26T08:49:59;20;21;
65803;PMS5003;65658;63.740;34.316;2023-02-26T08:54:22;14;16;
65803;PMS5003;65658;63.740;34.316;2023-02-26T08:59:08;4;4;
65803;PMS5003;65658;63.740;34.316;2023-02-26T09:03:19;9;9;
65803;PMS5003;65658;63.740;34.316;2023-02-26T09:07:05;17;18;
65803;PMS5003;65658;63.740;34.316;2023-02-26T09:10:57;13;16;
65803;PMS5003;65658;63.740;34.316;2023-02-26T09:14:56;16;17;
65803;PMS5003;65658;63.740;34.316;2023-02-26T09:19:06;11;15;
65803;PMS5003;65658;63.740;34.316;2023-02-26T09:22:54;11;11;
65803;PMS5003;65658;63.740;34.316;2023-02-26T09:26:52;11;14;
65803;PMS5003;65658;63.740;34.316;2023-02-26T09:31:26;13;13;
65803;PMS5003;65658;63.740;34.316;2023-02-26T09:35:12;13;13;
65803;PMS5003;65658;63.740;34.316;2023-02-26T09:38:58;11;13;
65803;PMS5003;65658;63.740;34.316;2023-02-26T09:42:51;13;14;
65803;PMS5003;65658;63.740;34.316;2023-02-26T09:50:42;7;9;
65803;PMS5003;65658;63.740;34.316;2023-02-26T09:54:40;13;14;
65803;PMS5003;65658;63.740;34.316;2023-02-26T10:02:15;20;22;
65803;PMS5003;65658;63.740;34.316;2023-02-26T10:09:59;15;18;
65803;PMS5003;65658;63.740;34.316;2023-02-26T10:13:50;12;14;
65803;PMS5003;65658;63.740;34.316;2023-02-26T10:17:51;16;18;
65803;PMS5003;65658;63.740;34.316;2023-02-26T10:21:44;21;25;
65803;PMS5003;65658;63.740;34.316;2023-02-26T10:25:32;14;14;
65803;PMS5003;65658;63.740;34.316;2023-02-26T10:34:15;12;14;
65803;PMS5003;65658;63.740;34.316;2023-02-26T10:37:20;13;13;
65803;PMS5003;65658;63.740;34.316;2023-02-26T10:41:14;8;9;
65803;PMS5003;65658;63.740;34.316;2023-02-26T10:52:45;12;12;
65803;PMS5003;65658;63.740;34.316;2023-02-26T10:56:32;9;11;
65803;PMS5003;65658;63.740;34.316;2023-02-26T11:00:19;10;10;
65803;PMS5003;65658;63.740;34.316;2023-02-26T11:04:11;11;13;
65803;PMS5003;65658;63.740;34.316;2023-02-26T11:08:03;10;10;
65803;PMS5003;65658;63.740;34.316;2023-02-26T11:15:37;9;9;
65803;PMS5003;65658;63.740;34.316;2023-02-26T11:19:27;5;5;
65803;PMS5003;65658;63.740;34.316;2023-02-26T11:23:17;9;9;
65803;PMS5003;65658;63.740;34.316;2023-02-26T11:27:20;9;9;
65803;PMS5003;65658;63.740;34.316;2023-02-26T11:31:19;9;9;
65803;PMS5003;65658;63.740;34.316;2023-02-26T11:35:08;8;9;
65803;PMS5003;65658;63.740;34.316;2023-02-26T11:39:00;6;6;
65803;PMS5003;65658;63.740;34.316;2023-02-26T11:46:39;6;6;
65803;PMS5003;65658;63.740;34.316;2023-02-26T11:50:26;6;6;
65803;PMS5003;65658;63.740;34.316;2023-02-26T11:58:15;8;8;
65803;PMS5003;65658;63.740;34.316;2023-02-26T12:01:56;8;8;
65803;PMS5003;65658;63.740;34.316;2023-02-26T12:05:46;6;6;
65803;PMS5003;65658;63.740;34.316;2023-02-26T12:09:33;8;9;
65803;PMS5003;65658;63.740;34.316;2023-02-26T12:43:54;13;16;
65803;PMS5003;65658;63.740;34.316;2023-02-26T13:15:01;7;9;
65803;PMS5003;65658;63.740;34.316;2023-02-26T13:22:44;7;7;
65803;PMS5003;65658;63.740;34.316;2023-02-26T13:26:32;6;9;
65803;PMS5003;65658;63.740;34.316;2023-02-26T13:30:43;6;6;
65803;PMS5003;65658;63.740;34.316;2023-02-26T13:53:58;12;14;
65803;PMS5003;65658;63.740;34.316;2023-02-26T14:01:53;10;10;
65803;PMS5003;65658;63.740;34.316;2023-02-26T14:09:35;8;9;
65803;PMS5003;65658;63.740;34.316;2023-02-26T14:17:48;6;6;
65803;PMS5003;65658;63.740;34.316;2023-02-26T14:21:36;11;12;
65803;PMS5003;65658;63.740;34.316;2023-02-26T14:37:49;12;13;
65803;PMS5003;65658;63.740;34.316;2023-02-26T14:41:39;9;12;
65803;PMS5003;65658;63.740;34.316;2023-02-26T14:45:38;12;13;
65803;PMS5003;65658;63.740;34.316;2023-02-26T14:49:40;9;9;
65803;PMS5003;65658;63.740;34.316;2023-02-26T15:26:44;19;19;
65803;PMS5003;65658;63.740;34.316;2023-02-26T15:30:47;11;13;
65803;PMS5003;65658;63.740;34.316;2023-02-26T15:34:59;14;17;
65803;PMS5003;65658;63.740;34.316;2023-02-26T15:39:41;12;12;
65803;PMS5003;65658;63.740;34.316;2023-02-26T15:44:05;11;11;
65803;PMS5003;65658;63.740;34.316;2023-02-26T15:49:07;12;13;
65803;PMS5003;65658;63.740;34.316;2023-02-26T15:57:32;11;12;
65803;PMS5003;65658;63.740;34.316;2023-02-26T16:01:32;12;15;
65803;PMS5003;65658;63.740;34.316;2023-02-26T16:05:43;11;12;
65803;PMS5003;65658;63.740;34.316;2023-02-26T16:10:06;9;9;
65803;PMS5003;65658;63.740;34.316;2023-02-26T16:14:52;9;9;
65803;PMS5003;65658;63.740;34.316;2023-02-26T16:19:51;14;14;
65803;PMS5003;65658;63.740;34.316;2023-02-26T16:24:24;9;9;
65803;PMS5003;65658;63.740;34.316;2023-02-26T16:32:40;8;9;
65803;PMS5003;65658;63.740;34.316;2023-02-26T16:41:53;11;15;
65803;PMS5003;65658;63.740;34.316;2023-02-26T16:46:40;12;14;
65803;PMS5003;65658;63.740;34.316;2023-02-26T16:51:36;15;17;
65803;PMS5003;65658;63.740;34.316;2023-02-26T16:55:59;19;23;
65803;PMS5003;65658;63.740;34.316;2023-02-26T17:00:17;17;18;
65803;PMS5003;65658;63.740;34.316;2023-02-26T17:04:08;17;22;
65803;PMS5003;65658;63.740;34.316;2023-02-26T17:08:14;21;22;
65803;PMS5003;65658;63.740;34.316;2023-02-26T17:16:40;16;16;
65803;PMS5003;65658;63.740;34.316;2023-02-26T17:21:22;12;14;
65803;PMS5003;65658;63.740;34.316;2023-02-26T17:25:36;18;19;
65803;PMS5003;65658;63.740;34.316;2023-02-26T17:29:47;15;16;
65803;PMS5003;65658;63.740;34.316;2023-02-26T17:34:21;18;19;
65803;PMS5003;65658;63.740;34.316;2023-02-26T17:39:08;16;19;
65803;PMS5003;65658;63.740;34.316;2023-02-26T17:43:51;8;9;
65803;PMS5003;65658;63.740;34.316;2023-02-26T17:48:02;17;19;
65803;PMS5003;65658;63.740;34.316;2023-02-26T17:53:09;14;19;
65803;PMS5003;65658;63.740;34.316;2023-02-26T17:57:42;19;21;
65803;PMS5003;65658;63.740;34.316;2023-02-26T18:01:51;22;22;
65803;PMS5003;65658;63.740;34.316;2023-02-26T18:05:39;15;22;
65803;PMS5003;65658;63.740;34.316;2023-02-26T18:09:49;18;19;
65803;PMS5003;65658;63.740;34.316;2023-02-26T18:13:48;21;22;
65803;PMS5003;65658;63.740;34.316;2023-02-26T18:17:36;28;34;
65803;PMS5003;65658;63.740;34.316;2023-02-26T18:21:27;34;38;
65803;PMS5003;65658;63.740;34.316;2023-02-26T18:25:14;26;33;
65803;PMS5003;65658;63.740;34.316;2023-02-26T18:29:24;17;19;
65803;PMS5003;65658;63.740;34.316;2023-02-26T18:33:11;23;24;
65803;PMS5003;65658;63.740;34.316;2023-02-26T18:36:59;20;23;
65803;PMS5003;65658;63.740;34.316;2023-02-26T18:40:47;15;18;
65803;PMS5003;65658;63.740;34.316;2023-02-26T18:44:46;18;20;
65803;PMS5003;65658;63.740;34.316;2023-02-26T18:48:44;15;15;
65803;PMS5003;65658;63.740;34.316;2023-02-26T18:52:30;14;15;
65803;PMS5003;65658;63.740;34.316;2023-02-26T18:56:17;17;18;
65803;PMS5003;65658;63.740;34.316;2023-02-26T19:00:15;13;13;
65803;PMS5003;65658;63.740;34.316;2023-02-26T19:04:04;11;12;
65803;PMS5003;65658;63.740;34.316;2023-02-26T19:08:26;17;18;
65803;PMS5003;65658;63.740;34.316;2023-02-26T19:12:13;15;21;
65803;PMS5003;65658;63.740;34.316;2023-02-26T19:16:34;10;10;
65803;PMS5003;65658;63.740;34.316;2023-02-26T19:20:43;10;10;
65803;PMS5003;65658;63.740;34.316;2023-02-26T19:24:54;15;18;
65803;PMS5003;65658;63.740;34.316;2023-02-26T19:29:36;13;15;
65803;PMS5003;65658;63.740;34.316;2023-02-26T19:33:45;15;15;
65803;PMS5003;65658;63.740;34.316;2023-02-26T19:37:54;10;10;
65803;PMS5003;65658;63.740;34.316;2023-02-26T19:41:52;19;21;
65803;PMS5003;65658;63.740;34.316;2023-02-26T19:45:40;24;28;
65803;PMS5003;65658;63.740;34.316;2023-02-26T19:49:27;24;25;
65803;PMS5003;65658;63.740;34.316;2023-02-26T19:53:14;15;17;
65803;PMS5003;65658;63.740;34.316;2023-02-26T19:57:47;9;9;
65803;PMS5003;65658;63.740;34.316;2023-02-26T20:01:58;11;12;
65803;PMS5003;65658;63.740;34.316;2023-02-26T20:05:45;16;18;
65803;PMS5003;65658;63.740;34.316;2023-02-26T20:09:43;15;18;
65803;PMS5003;65658;63.740;34.316;2023-02-26T20:13:30;14;18;
65803;PMS5003;65658;63.740;34.316;2023-02-26T20:17:42;12;14;
65803;PMS5003;65658;63.740;34.316;2023-02-26T20:22:04;17;18;
65803;PMS5003;65658;63.740;34.316;2023-02-26T20:26:27;14;15;
65803;PMS5003;65658;63.740;34.316;2023-02-26T20:30:39;12;13;
65803;PMS5003;65658;63.740;34.316;2023-02-26T20:35:12;12;13;
65803;PMS5003;65658;63.740;34.316;2023-02-26T20:39:45;12;13;
65803;PMS5003;65658;63.740;34.316;2023-02-26T20:44:41;19;20;
65803;PMS5003;65658;63.740;34.316;2023-02-26T20:49:15;16;19;
65803;PMS5003;65658;63.740;34.316;2023-02-26T20:53:38;23;24;
65803;PMS5003;65658;63.740;34.316;2023-02-26T20:57:26;19;20;
65803;PMS5003;65658;63.740;34.316;2023-02-26T21:02:10;14;14;
65803;PMS5003;65658;63.740;34.316;2023-02-26T21:06:21;15;17;
65803;PMS5003;65658;63.740;34.316;2023-02-26T21:11:04;6;6;
65803;PMS5003;65658;63.740;34.316;2023-02-26T21:15:48;5;5;
65803;PMS5003;65658;63.740;34.316;2023-02-26T21:20:34;5;5;
65803;PMS5003;65658;63.740;34.316;2023-02-26T21:24:55;7;7;
65803;PMS5003;65658;63.740;34.316;2023-02-26T21:29:06;8;10;
65803;PMS5003;65658;63.740;34.316;2023-02-26T21:33:16;7;7;
65803;PMS5003;65658;63.740;34.316;2023-02-26T21:37:38;11;11;
65803;PMS5003;65658;63.740;34.316;2023-02-26T21:41:38;7;7;
65803;PMS5003;65658;63.740;34.316;2023-02-26T21:46:10;8;10;
65803;PMS5003;65658;63.740;34.316;2023-02-26T21:50:42;10;12;
65803;PMS5003;65658;63.740;34.316;2023-02-26T21:55:04;10;10;
65803;PMS5003;65658;63.740;34.316;2023-02-26T21:59:13;8;11;
65803;PMS5003;65658;63.740;34.316;2023-02-26T22:03:11;8;10;
65803;PMS5003;65658;63.740;34.316;2023-02-26T22:07:41;7;8;
65803;PMS5003;65658;63.740;34.316;2023-02-26T22:11:50;8;8;
65803;PMS5003;65658;63.740;34.316;2023-02-26T22:15:48;8;10;
65803;PMS5003;65658;63.740;34.316;2023-02-26T22:20:09;11;13;
65803;PMS5003;65658;63.740;34.316;2023-02-26T22:23:55;8;10;
65803;PMS5003;65658;63.740;34.316;2023-02-26T22:27:41;7;7;
65803;PMS5003;65658;63.740;34.316;2023-02-26T22:31:29;7;7;
65803;PMS5003;65658;63.740;34.316;2023-02-26T22:35:15;7;7;
65803;PMS5003;65658;63.740;34.316;2023-02-26T22:39:02;7;9;
65803;PMS5003;65658;63.740;34.316;2023-02-26T22:42:49;7;9;
65803;PMS5003;65658;63.740;34.316;2023-02-26T22:46:35;10;12;
65803;PMS5003;65658;63.740;34.316;2023-02-26T22:50:22;10;10;
65803;PMS5003;65658;63.740;34.316;2023-02-26T22:54:09;7;7;
65803;PMS5003;65658;63.740;34.316;2023-02-26T22:57:55;6;6;
65803;PMS5003;65658;63.740;34.316;2023-02-26T23:01:52;6;6;
65803;PMS5003;65658;63.740;34.316;2023-02-26T23:05:40;7;9;
65803;PMS5003;65658;63.740;34.316;2023-02-26T23:09:26;6;6;
65803;PMS5003;65658;63.740;34.316;2023-02-26T23:13:13;7;7;
65803;PMS5003;65658;63.740;34.316;2023-02-26T23:17:00;7;7;
65803;PMS5003;65658;63.740;34.316;2023-02-26T23:20:47;7;9;
65803;PMS5003;65658;63.740;34.316;2023-02-26T23:24:34;9;9;
65803;PMS5003;65658;63.740;34.316;2023-02-26T23:28:21;7;7;
65803;PMS5003;65658;63.740;34.316;2023-02-26T23:32:08;6;6;
65803;PMS5003;65658;63.740;34.316;2023-02-26T23:35:55;6;6;
65803;PMS5003;65658;63.740;34.316;2023-02-26T23:39:42;9;9;
65803;PMS5003;65658;63.740;34.316;2023-02-26T23:43:28;9;12;
65803;PMS5003;65658;63.740;34.316;2023-02-26T23:47:15;12;13;
65803;PMS5003;65658;63.740;34.316;2023-02-26T23:51:02;13;13;
65803;PMS5003;65658;63.740;34.316;2023-02-26T23:54:51;10;10;
65803;PMS5003;65658;63.740;34.316;2023-02-26T23:58:37;7;7;
